Dallas Fort Worth International Airport

KDFW | DFW

Dallas-Fort Worth , Texas , United States

Sunday, June 7th, 2020 | 01:20

Weather

KDFW 070553Z 11006KT 10SM CLR 28/22 A2984 RMK AO2 SLP095 T02780222 10344 20278 403670244 50008

Charts

153 Available

Gates

208 Available

Runways

7 Available

Active ATC

Events -Coming Soon-

1 Events Coming Up Soon

Next event:
KDFW Flyout